Time;durP1;ratioP1;P1;durP2;ratioP2;P2;SDS_P1;SDS_P2;PMS_P1;PMS_P2;Temp;Humidity;BMP_temperature;BMP_pressure;BME280_temperature;BME280_humidity;BME280_pressure;Samples;Min_cycle;Max_cycle;Signal;HPM_P1;HPM_P2
2021/10/05 00:02:09;;;;;;;;;;;16.90;99.90;;;;;;5083921;28;19975;-86
2021/10/05 00:04:58;;;;;;;;;;;14.10;99.90;;;;;;5085700;28;19947;-85
2021/10/05 00:16:43;;;;;;;;;;;14.10;99.90;;;;;;5082793;28;19972;-85
2021/10/05 00:25:29;;;;;;;;;;;14.30;99.90;;;;;;5081540;28;19953;-85
2021/10/05 00:31:17;;;;;;;;;;;13.90;99.90;;;;;;5077810;28;20015;-85
2021/10/05 00:36:48;;;;;;;;;;;12.50;99.90;;;;;;5082464;28;19966;-85
2021/10/05 00:39:41;;;;;;;;;;;12.20;99.90;;;;;;5084167;28;19948;-85
2021/10/05 00:42:24;;;;;;;;;;;13.10;99.90;;;;;;5083872;28;19964;-85
2021/10/05 00:56:38;;;;;;;;;;;13.10;99.90;;;;;;5034172;28;19947;-85
2021/10/05 00:59:29;;;;;;;;;;;13.70;99.90;;;;;;5066371;28;19952;-85
2021/10/05 01:11:00;;;;;;;;;;;17.10;99.90;;;;;;5083931;28;19944;-85
2021/10/05 01:22:53;;;;;;;;;;;14.50;99.90;;;;;;5082731;28;19947;-85
2021/10/05 01:37:29;;;;;;;;;;;13.90;99.90;;;;;;5080960;28;19999;-86
2021/10/05 01:45:52;;;;;;;;;;;14.30;99.90;;;;;;5097112;28;19942;-85
2021/10/05 01:48:33;;;;;;;;;;;12.90;99.90;;;;;;5092236;28;19952;-86
2021/10/05 01:53:40;;;;;;;;;;;14.20;99.90;;;;;;5083594;28;19971;-86
2021/10/05 01:56:07;;;;;;;;;;;14.10;99.90;;;;;;5086802;28;20392;-87
2021/10/05 01:58:34;;;;;;;;;;;14.10;99.90;;;;;;5084684;28;19948;-87
2021/10/05 02:01:00;;;;;;;;;;;14.10;99.90;;;;;;5084017;28;19953;-87
2021/10/05 02:03:28;;;;;;;;;;;14.10;99.90;;;;;;5085349;28;19947;-87
2021/10/05 02:05:54;;;;;;;;;;;14.00;99.90;;;;;;5083330;28;19951;-87
2021/10/05 02:08:21;;;;;;;;;;;14.00;99.90;;;;;;5077793;28;20320;-86
2021/10/05 02:10:47;;;;;;;;;;;13.90;99.90;;;;;;5077747;28;19996;-87
2021/10/05 02:13:14;;;;;;;;;;;14.00;99.90;;;;;;5078175;28;20012;-87
2021/10/05 02:15:40;;;;;;;;;;;14.00;99.90;;;;;;5077917;28;19952;-87
2021/10/05 02:18:07;;;;;;;;;;;14.00;99.90;;;;;;5080364;28;19958;-87
2021/10/05 02:20:35;;;;;;;;;;;14.00;99.90;;;;;;5078259;28;19996;-87
2021/10/05 02:23:02;;;;;;;;;;;13.90;99.90;;;;;;5079613;28;19962;-88
2021/10/05 02:25:27;;;;;;;;;;;14.00;99.90;;;;;;5079203;28;19948;-88
2021/10/05 02:27:54;;;;;;;;;;;14.00;99.90;;;;;;5079296;28;19942;-87
2021/10/05 02:30:21;;;;;;;;;;;14.00;99.90;;;;;;5079150;28;19995;-88
2021/10/05 02:32:47;;;;;;;;;;;13.90;99.90;;;;;;5086241;28;19969;-87
2021/10/05 02:35:14;;;;;;;;;;;13.90;99.90;;;;;;5096034;28;19964;-88
2021/10/05 02:37:43;;;;;;;;;;;13.90;99.90;;;;;;5093169;28;19982;-87
2021/10/05 02:40:10;;;;;;;;;;;13.80;99.90;;;;;;5082015;28;19950;-87
2021/10/05 02:42:37;;;;;;;;;;;13.80;99.90;;;;;;5081633;28;19963;-87
2021/10/05 02:45:04;;;;;;;;;;;13.80;99.90;;;;;;5081296;28;19946;-87
2021/10/05 02:47:30;;;;;;;;;;;13.90;99.90;;;;;;5083616;28;20424;-87
2021/10/05 02:49:57;;;;;;;;;;;13.90;99.90;;;;;;5083544;28;19946;-87
2021/10/05 02:52:24;;;;;;;;;;;13.90;99.90;;;;;;5084574;28;20020;-86
2021/10/05 02:54:52;;;;;;;;;;;13.80;99.90;;;;;;5088170;28;19966;-86
2021/10/05 02:57:19;;;;;;;;;;;13.90;99.90;;;;;;5094121;28;19952;-86
2021/10/05 02:59:46;;;;;;;;;;;13.90;99.90;;;;;;5083279;28;19950;-86
2021/10/05 03:02:15;;;;;;;;;;;13.80;99.90;;;;;;5084473;28;19966;-86
2021/10/05 03:04:42;;;;;;;;;;;13.80;99.90;;;;;;5084555;28;20405;-86
2021/10/05 03:07:08;;;;;;;;;;;13.80;99.90;;;;;;5081872;28;20001;-86
2021/10/05 03:09:35;;;;;;;;;;;13.80;99.90;;;;;;5082260;28;19952;-87
2021/10/05 03:12:03;;;;;;;;;;;13.80;99.90;;;;;;5091167;28;19962;-87
2021/10/05 03:14:30;;;;;;;;;;;13.80;99.90;;;;;;5097412;28;19957;-87
2021/10/05 03:16:56;;;;;;;;;;;13.80;99.90;;;;;;5100318;28;19939;-87
2021/10/05 03:19:23;;;;;;;;;;;13.80;99.90;;;;;;5101614;28;19936;-88
2021/10/05 03:21:49;;;;;;;;;;;13.80;99.90;;;;;;5101803;28;19953;-89
2021/10/05 03:24:16;;;;;;;;;;;13.80;99.90;;;;;;5101838;28;19945;-88
2021/10/05 03:26:43;;;;;;;;;;;13.80;99.90;;;;;;5101580;28;19946;-87
2021/10/05 03:29:13;;;;;;;;;;;13.70;99.90;;;;;;5101257;28;19930;-88
2021/10/05 03:31:39;;;;;;;;;;;13.90;99.90;;;;;;5087164;28;20008;-87
2021/10/05 03:34:05;;;;;;;;;;;13.80;99.90;;;;;;5083249;28;20019;-87
2021/10/05 03:36:32;;;;;;;;;;;13.80;99.90;;;;;;5084914;28;19974;-87
2021/10/05 03:39:01;;;;;;;;;;;13.80;99.90;;;;;;5083284;28;19952;-88
2021/10/05 03:41:30;;;;;;;;;;;13.80;99.90;;;;;;5082514;28;19965;-87
2021/10/05 03:43:57;;;;;;;;;;;13.70;99.90;;;;;;5082147;28;20012;-87
2021/10/05 03:46:25;;;;;;;;;;;13.70;99.90;;;;;;5084758;28;19947;-87
2021/10/05 03:48:51;;;;;;;;;;;13.80;99.90;;;;;;5088892;28;19947;-87
2021/10/05 03:51:18;;;;;;;;;;;13.70;99.90;;;;;;5097874;28;19950;-87
2021/10/05 03:53:44;;;;;;;;;;;13.70;99.90;;;;;;5099544;28;19929;-86
2021/10/05 03:56:11;;;;;;;;;;;13.70;99.90;;;;;;5097120;28;19946;-87
2021/10/05 03:58:37;;;;;;;;;;;13.70;99.90;;;;;;5097098;28;19947;-87
2021/10/05 04:01:04;;;;;;;;;;;13.80;99.90;;;;;;5096318;28;19952;-87
2021/10/05 04:03:32;;;;;;;;;;;13.70;99.90;;;;;;5093997;28;19946;-87
2021/10/05 04:05:58;;;;;;;;;;;13.70;99.90;;;;;;5091726;28;20422;-87
2021/10/05 04:08:25;;;;;;;;;;;13.60;99.90;;;;;;5090085;28;19949;-87
2021/10/05 04:10:51;;;;;;;;;;;13.60;99.90;;;;;;5087931;28;20421;-87
2021/10/05 04:13:18;;;;;;;;;;;13.50;99.90;;;;;;5088044;28;19968;-88
2021/10/05 04:15:44;;;;;;;;;;;13.40;99.90;;;;;;5086198;28;20488;-87
2021/10/05 04:18:11;;;;;;;;;;;13.40;99.90;;;;;;5085663;28;19943;-86
2021/10/05 04:20:39;;;;;;;;;;;13.40;99.90;;;;;;5093862;28;19982;-88
2021/10/05 04:23:05;;;;;;;;;;;13.10;99.90;;;;;;5092930;28;19968;-86
2021/10/05 04:25:32;;;;;;;;;;;13.40;99.90;;;;;;5081177;28;19946;-87
2021/10/05 04:27:59;;;;;;;;;;;13.40;99.90;;;;;;5093430;28;19934;-86
2021/10/05 04:30:25;;;;;;;;;;;13.40;99.90;;;;;;5100093;28;19945;-87
2021/10/05 04:32:52;;;;;;;;;;;13.50;99.90;;;;;;5100024;28;19949;-87
2021/10/05 04:35:18;;;;;;;;;;;13.50;99.90;;;;;;5100374;28;19944;-88
2021/10/05 04:37:46;;;;;;;;;;;13.40;99.90;;;;;;5100423;28;19970;-89
2021/10/05 04:40:13;;;;;;;;;;;13.40;99.90;;;;;;5100294;28;19953;-88
2021/10/05 04:42:39;;;;;;;;;;;13.40;99.90;;;;;;5099943;28;19951;-88
2021/10/05 04:45:06;;;;;;;;;;;13.40;99.90;;;;;;5098605;28;19953;-87
2021/10/05 04:47:33;;;;;;;;;;;13.40;99.90;;;;;;5090963;28;19956;-86
2021/10/05 04:49:59;;;;;;;;;;;13.30;99.90;;;;;;5082721;28;19947;-87
2021/10/05 04:52:26;;;;;;;;;;;13.40;99.90;;;;;;5083226;28;19971;-88
2021/10/05 04:54:53;;;;;;;;;;;13.40;99.90;;;;;;5082535;28;20013;-87
2021/10/05 04:57:20;;;;;;;;;;;13.30;99.90;;;;;;5081424;28;19949;-87
2021/10/05 04:59:47;;;;;;;;;;;13.30;99.90;;;;;;5080677;28;19976;-88
2021/10/05 05:02:14;;;;;;;;;;;13.30;99.90;;;;;;5081838;28;20333;-88
2021/10/05 05:04:40;;;;;;;;;;;13.40;99.90;;;;;;5084002;28;20010;-87
2021/10/05 05:07:07;;;;;;;;;;;13.20;99.90;;;;;;5082594;28;19969;-87
2021/10/05 05:09:33;;;;;;;;;;;13.20;99.90;;;;;;5082030;28;19946;-87
2021/10/05 05:12:01;;;;;;;;;;;13.20;99.90;;;;;;5079484;28;19973;-86
2021/10/05 05:14:27;;;;;;;;;;;13.20;99.90;;;;;;5078430;28;20364;-88
2021/10/05 05:16:54;;;;;;;;;;;13.20;99.90;;;;;;5078321;28;20317;-86
2021/10/05 05:19:20;;;;;;;;;;;13.20;99.90;;;;;;5078200;28;19953;-86
2021/10/05 05:21:47;;;;;;;;;;;13.10;99.90;;;;;;5077433;28;19963;-86
2021/10/05 05:24:13;;;;;;;;;;;13.10;99.90;;;;;;5078002;28;19968;-87
2021/10/05 05:26:40;;;;;;;;;;;13.10;99.90;;;;;;5080339;28;19970;-86
2021/10/05 05:29:08;;;;;;;;;;;13.00;99.90;;;;;;5078168;28;19981;-87
2021/10/05 05:31:34;;;;;;;;;;;13.10;99.90;;;;;;5077337;28;20320;-87
2021/10/05 05:34:01;;;;;;;;;;;13.20;99.90;;;;;;5078220;28;20012;-86
2021/10/05 05:36:27;;;;;;;;;;;13.10;99.90;;;;;;5078867;28;19949;-87
2021/10/05 05:38:54;;;;;;;;;;;13.20;99.90;;;;;;5078388;28;19979;-87
2021/10/05 05:41:20;;;;;;;;;;;13.10;99.90;;;;;;5089315;28;19960;-87
2021/10/05 05:43:47;;;;;;;;;;;13.10;99.90;;;;;;5097767;28;19946;-87
2021/10/05 05:46:47;;;;;;;;;;;13.10;99.90;;;;;;5097729;28;19942;-86
2021/10/05 05:49:15;;;;;;;;;;;13.10;99.90;;;;;;5098448;28;19948;-87
2021/10/05 05:51:42;;;;;;;;;;;12.90;99.90;;;;;;5097740;28;19949;-86
2021/10/05 05:54:08;;;;;;;;;;;13.20;99.90;;;;;;5090146;28;19951;-86
2021/10/05 05:56:35;;;;;;;;;;;13.20;99.90;;;;;;5080235;28;19945;-87
2021/10/05 05:59:01;;;;;;;;;;;12.90;99.90;;;;;;5084790;28;20036;-87
2021/10/05 06:01:28;;;;;;;;;;;13.10;99.90;;;;;;5084620;28;19964;-87
2021/10/05 06:03:54;;;;;;;;;;;13.10;99.90;;;;;;5086078;28;19948;-88
2021/10/05 06:06:36;;;;;;;;;;;13.10;99.90;;;;;;5088432;28;19958;-86
2021/10/05 06:09:04;;;;;;;;;;;13.20;99.90;;;;;;5086989;28;19947;-87
2021/10/05 06:11:33;;;;;;;;;;;13.20;99.90;;;;;;5085537;28;19965;-87
2021/10/05 06:13:59;;;;;;;;;;;13.30;99.90;;;;;;5083019;28;19954;-86
2021/10/05 06:16:26;;;;;;;;;;;13.30;99.90;;;;;;5094887;28;19981;-86
2021/10/05 06:18:52;;;;;;;;;;;13.20;99.90;;;;;;5089187;28;19950;-85
2021/10/05 06:21:19;;;;;;;;;;;13.30;99.90;;;;;;5092623;28;19960;-86
2021/10/05 06:23:45;;;;;;;;;;;13.30;99.90;;;;;;5094198;28;19948;-87
2021/10/05 06:26:13;;;;;;;;;;;13.40;99.90;;;;;;5092923;28;19958;-87
2021/10/05 06:28:40;;;;;;;;;;;13.40;99.90;;;;;;5101610;28;19937;-88
2021/10/05 06:31:06;;;;;;;;;;;13.50;99.90;;;;;;5101854;28;19948;-88
2021/10/05 06:33:33;;;;;;;;;;;13.50;99.90;;;;;;5100886;28;19949;-87
2021/10/05 06:35:59;;;;;;;;;;;13.50;99.90;;;;;;5093101;28;20027;-87
2021/10/05 06:38:26;;;;;;;;;;;13.50;99.90;;;;;;5090021;28;19954;-87
2021/10/05 06:40:53;;;;;;;;;;;13.50;99.90;;;;;;5085630;28;19950;-87
2021/10/05 06:43:20;;;;;;;;;;;13.50;99.90;;;;;;5084202;28;19960;-87
2021/10/05 06:45:47;;;;;;;;;;;13.40;99.90;;;;;;5085188;28;19958;-87
2021/10/05 06:48:14;;;;;;;;;;;13.50;99.90;;;;;;5093886;28;19952;-86
2021/10/05 06:50:40;;;;;;;;;;;13.50;99.90;;;;;;5093906;28;19940;-86
2021/10/05 06:53:07;;;;;;;;;;;13.50;99.90;;;;;;5086721;28;19980;-87
2021/10/05 06:55:33;;;;;;;;;;;13.60;99.90;;;;;;5083852;28;19967;-87
2021/10/05 06:58:00;;;;;;;;;;;13.50;99.90;;;;;;5088249;28;20010;-87
2021/10/05 07:00:28;;;;;;;;;;;13.50;99.90;;;;;;5086555;28;19987;-86
2021/10/05 07:02:55;;;;;;;;;;;13.50;99.90;;;;;;5090844;28;20332;-86
2021/10/05 07:05:22;;;;;;;;;;;13.60;99.90;;;;;;5089517;28;19955;-86
2021/10/05 07:07:49;;;;;;;;;;;13.60;99.90;;;;;;5097485;28;19931;-86
2021/10/05 07:10:17;;;;;;;;;;;13.60;99.90;;;;;;5100965;28;19948;-86
2021/10/05 07:12:43;;;;;;;;;;;13.60;99.90;;;;;;5099895;28;19964;-86
2021/10/05 07:15:11;;;;;;;;;;;13.70;99.90;;;;;;5088409;28;19960;-86
2021/10/05 07:17:39;;;;;;;;;;;13.70;99.90;;;;;;5082892;28;19949;-87
2021/10/05 07:20:06;;;;;;;;;;;13.70;99.90;;;;;;5082544;28;19973;-87
2021/10/05 07:22:33;;;;;;;;;;;13.70;99.90;;;;;;5081849;28;20386;-87
2021/10/05 07:25:00;;;;;;;;;;;13.70;99.90;;;;;;5081318;28;19952;-87
2021/10/05 07:27:26;;;;;;;;;;;13.70;99.90;;;;;;5081029;28;20325;-87
2021/10/05 07:29:53;;;;;;;;;;;13.80;99.90;;;;;;5080842;28;19956;-87
2021/10/05 07:32:20;;;;;;;;;;;13.70;99.90;;;;;;5083077;28;19963;-89
2021/10/05 07:34:48;;;;;;;;;;;13.80;99.90;;;;;;5080795;28;19996;-83
2021/10/05 07:37:14;;;;;;;;;;;13.90;99.90;;;;;;5090005;28;19972;-83
2021/10/05 07:39:40;;;;;;;;;;;13.90;99.90;;;;;;5090118;28;19948;-83
2021/10/05 07:42:07;;;;;;;;;;;13.90;99.90;;;;;;5093948;28;19969;-83
2021/10/05 07:47:15;;;;;;;;;;;13.90;99.90;;;;;;5087024;28;19997;-83
2021/10/05 07:49:42;;;;;;;;;;;13.90;99.90;;;;;;5092487;28;19971;-83
2021/10/05 08:35:27;;;;;;;;;;;14.10;99.90;;;;;;1215948;22;20896;-85
2021/10/05 08:37:55;;;;;;;;;;;14.10;99.90;;;;;;5059575;28;20000;-85
2021/10/05 08:40:22;;;;;;;;;;;14.00;99.90;;;;;;5061133;28;19966;-84
2021/10/05 08:42:49;;;;;;;;;;;14.00;99.90;;;;;;5062919;28;19964;-85
2021/10/05 08:45:15;;;;;;;;;;;13.90;99.90;;;;;;5066777;28;19949;-86
2021/10/05 08:47:42;;;;;;;;;;;13.90;99.90;;;;;;5059263;28;19949;-83
2021/10/05 08:50:09;;;;;;;;;;;13.90;99.90;;;;;;5060001;28;19950;-84
2021/10/05 08:52:39;;;;;;;;;;;13.80;99.90;;;;;;5084020;22;19962;-85
2021/10/05 08:55:09;;;;;;;;;;;14.70;99.90;;;;;;5063744;28;19949;-87
2021/10/05 08:57:36;;;;;;;;;;;15.00;99.90;;;;;;5073730;28;19931;-87
2021/10/05 09:00:04;;;;;;;;;;;13.70;99.90;;;;;;5074348;28;19956;-88
2021/10/05 09:02:44;;;;;;;;;;;13.70;99.90;;;;;;5076358;28;19975;-88
2021/10/05 09:05:13;;;;;;;;;;;13.90;99.90;;;;;;5077177;28;20002;-87
2021/10/05 09:07:44;;;;;;;;;;;13.50;99.90;;;;;;5074824;28;19980;-88
2021/10/05 09:10:11;;;;;;;;;;;13.50;99.90;;;;;;5067766;28;19967;-86
2021/10/05 09:12:39;;;;;;;;;;;13.80;99.90;;;;;;5068393;28;20015;-86
2021/10/05 09:15:07;;;;;;;;;;;13.90;99.90;;;;;;5065775;28;20394;-87
2021/10/05 09:17:33;;;;;;;;;;;13.90;99.90;;;;;;5065155;28;19976;-87
2021/10/05 09:20:17;;;;;;;;;;;14.00;99.90;;;;;;5069725;28;19948;-87
2021/10/05 09:22:55;;;;;;;;;;;13.90;99.90;;;;;;5073802;28;19965;-86
2021/10/05 09:25:27;;;;;;;;;;;13.60;99.90;;;;;;5065402;28;19945;-86
2021/10/05 09:27:54;;;;;;;;;;;13.90;99.90;;;;;;5067915;28;19966;-87
2021/10/05 09:30:22;;;;;;;;;;;13.80;99.90;;;;;;5075742;28;19995;-87
2021/10/05 09:33:02;;;;;;;;;;;13.70;99.90;;;;;;5070023;28;19966;-87
2021/10/05 09:36:03;;;;;;;;;;;13.90;99.90;;;;;;5065564;28;20434;-86
2021/10/05 09:38:34;;;;;;;;;;;13.20;99.90;;;;;;5058231;28;19951;-86
2021/10/05 09:41:09;;;;;;;;;;;13.90;99.90;;;;;;5063186;28;20026;-88
2021/10/05 09:43:54;;;;;;;;;;;14.50;99.90;;;;;;5062633;28;20335;-86
2021/10/05 09:46:20;;;;;;;;;;;14.50;99.90;;;;;;5067857;28;19943;-87
2021/10/05 09:52:02;;;;;;;;;;;14.00;99.90;;;;;;5035255;28;19963;-88
2021/10/05 09:55:08;;;;;;;;;;;14.50;99.90;;;;;;5038630;28;20036;-87
2021/10/05 09:58:01;;;;;;;;;;;13.80;99.90;;;;;;5066393;28;20069;-87
2021/10/05 10:00:43;;;;;;;;;;;14.00;99.90;;;;;;5066171;28;20035;-87
2021/10/05 10:03:19;;;;;;;;;;;15.50;99.90;;;;;;5066260;28;19968;-87
2021/10/05 10:05:51;;;;;;;;;;;15.30;99.90;;;;;;5069213;28;19951;-87
2021/10/05 10:08:34;;;;;;;;;;;14.70;99.90;;;;;;5073056;28;19948;-88
2021/10/05 10:11:37;;;;;;;;;;;14.90;99.90;;;;;;5077692;28;19933;-90
2021/10/05 10:14:14;;;;;;;;;;;12.50;99.90;;;;;;5068951;28;20034;-87
2021/10/05 10:19:30;;;;;;;;;;;13.10;99.90;;;;;;5061477;28;19948;-87
2021/10/05 10:22:07;;;;;;;;;;;13.50;99.90;;;;;;5064188;28;20070;-86
2021/10/05 10:24:43;;;;;;;;;;;14.10;99.90;;;;;;5071080;28;20015;-86
2021/10/05 10:27:10;;;;;;;;;;;14.20;99.90;;;;;;5068791;28;19957;-88
2021/10/05 10:29:38;;;;;;;;;;;14.20;99.90;;;;;;5063464;28;19970;-85
2021/10/05 10:32:12;;;;;;;;;;;14.20;99.90;;;;;;5063857;28;19965;-85
2021/10/05 10:34:39;;;;;;;;;;;14.20;99.90;;;;;;5063996;28;19948;-85
2021/10/05 10:37:12;;;;;;;;;;;14.20;99.90;;;;;;5062813;28;19970;-86
2021/10/05 10:39:40;;;;;;;;;;;14.30;99.90;;;;;;5064085;28;19970;-86
2021/10/05 10:42:06;;;;;;;;;;;14.30;99.90;;;;;;5061846;28;19963;-87
2021/10/05 10:44:37;;;;;;;;;;;14.30;99.90;;;;;;5064335;28;19965;-84
2021/10/05 10:47:07;;;;;;;;;;;14.30;99.90;;;;;;5063084;28;19958;-86
2021/10/05 10:49:33;;;;;;;;;;;14.30;99.90;;;;;;5064773;28;20305;-85
2021/10/05 10:52:00;;;;;;;;;;;14.30;99.90;;;;;;5065625;28;19973;-86
2021/10/05 10:54:27;;;;;;;;;;;14.30;99.90;;;;;;5063386;28;19946;-87
2021/10/05 10:56:59;;;;;;;;;;;14.30;99.90;;;;;;5064435;28;19964;-85
2021/10/05 10:59:26;;;;;;;;;;;14.30;99.90;;;;;;5064845;28;19941;-86
2021/10/05 11:01:53;;;;;;;;;;;14.30;99.90;;;;;;5069999;28;20012;-85
2021/10/05 11:04:21;;;;;;;;;;;14.30;99.90;;;;;;5075968;28;20318;-86
2021/10/05 11:06:48;;;;;;;;;;;14.40;99.90;;;;;;5080008;28;19994;-85
2021/10/05 11:09:15;;;;;;;;;;;14.30;99.90;;;;;;5079866;28;19932;-87
2021/10/05 11:11:43;;;;;;;;;;;14.40;99.90;;;;;;5077977;28;19994;-86
2021/10/05 11:14:11;;;;;;;;;;;14.40;99.90;;;;;;5077699;28;19944;-86
2021/10/05 11:16:38;;;;;;;;;;;14.40;99.90;;;;;;5077845;28;19969;-86
2021/10/05 11:19:06;;;;;;;;;;;14.40;99.90;;;;;;5077324;28;19949;-86
2021/10/05 11:21:35;;;;;;;;;;;14.40;99.90;;;;;;5075726;28;19973;-86
2021/10/05 11:24:01;;;;;;;;;;;14.40;99.90;;;;;;5071471;28;19948;-86
2021/10/05 11:26:32;;;;;;;;;;;14.50;99.90;;;;;;5079348;28;19962;-85
2021/10/05 11:29:01;;;;;;;;;;;14.50;99.90;;;;;;5080076;28;19953;-86
2021/10/05 11:31:27;;;;;;;;;;;14.50;99.90;;;;;;5079634;28;19936;-86
2021/10/05 11:34:03;;;;;;;;;;;14.50;99.90;;;;;;5079092;28;19946;-86
2021/10/05 11:36:32;;;;;;;;;;;14.50;99.90;;;;;;5073786;28;20035;-86
2021/10/05 11:39:00;;;;;;;;;;;14.50;99.90;;;;;;5066270;28;19950;-85
2021/10/05 11:41:35;;;;;;;;;;;14.50;99.90;;;;;;5063930;28;19947;-86
2021/10/05 11:44:01;;;;;;;;;;;14.60;99.90;;;;;;5062259;28;19986;-86
2021/10/05 11:46:28;;;;;;;;;;;14.60;99.90;;;;;;5066439;28;19998;-85
2021/10/05 11:48:55;;;;;;;;;;;14.60;99.90;;;;;;5073259;28;19949;-86
2021/10/05 11:51:22;;;;;;;;;;;14.70;99.90;;;;;;5064362;28;19955;-85
2021/10/05 11:53:49;;;;;;;;;;;13.70;99.90;;;;;;5071050;28;19962;-87
2021/10/05 11:56:18;;;;;;;;;;;14.60;99.90;;;;;;5073888;28;19963;-85
2021/10/05 11:58:47;;;;;;;;;;;14.70;99.90;;;;;;5077457;28;20012;-86
2021/10/05 12:01:16;;;;;;;;;;;14.70;99.90;;;;;;5079151;28;19935;-84
2021/10/05 12:03:43;;;;;;;;;;;14.70;99.90;;;;;;5079846;28;19931;-85
2021/10/05 12:06:10;;;;;;;;;;;14.70;99.90;;;;;;5079339;28;19943;-86
2021/10/05 12:08:44;;;;;;;;;;;14.70;99.90;;;;;;5077323;28;19946;-86
2021/10/05 12:11:11;;;;;;;;;;;14.70;99.90;;;;;;5079021;28;19954;-85
2021/10/05 12:13:39;;;;;;;;;;;14.70;99.90;;;;;;5079519;28;19942;-85
2021/10/05 12:16:13;;;;;;;;;;;14.70;99.90;;;;;;5079639;28;19949;-85
2021/10/05 12:18:39;;;;;;;;;;;14.70;99.90;;;;;;5079956;28;19950;-85
2021/10/05 12:21:07;;;;;;;;;;;14.70;99.90;;;;;;5079753;28;19973;-84
2021/10/05 12:23:33;;;;;;;;;;;14.70;99.90;;;;;;5077492;28;19964;-85
2021/10/05 12:26:07;;;;;;;;;;;14.70;99.90;;;;;;5077919;28;19967;-86
2021/10/05 12:28:34;;;;;;;;;;;14.70;99.90;;;;;;5077607;28;19937;-86
2021/10/05 12:31:10;;;;;;;;;;;14.70;99.90;;;;;;5071786;28;19949;-85
2021/10/05 12:33:38;;;;;;;;;;;14.70;99.90;;;;;;5069429;28;19965;-84
2021/10/05 12:36:04;;;;;;;;;;;14.80;99.90;;;;;;5069387;28;19942;-86
2021/10/05 12:38:35;;;;;;;;;;;14.70;99.90;;;;;;5068619;28;19954;-86
2021/10/05 12:41:02;;;;;;;;;;;14.70;99.90;;;;;;5064956;28;19968;-85
2021/10/05 12:43:39;;;;;;;;;;;14.70;99.90;;;;;;5069269;28;19961;-83
2021/10/05 12:46:08;;;;;;;;;;;14.70;99.90;;;;;;5076441;28;19996;-85
2021/10/05 12:48:36;;;;;;;;;;;14.80;99.90;;;;;;5074673;28;19945;-86
2021/10/05 12:56:47;;;;;;;;;;;14.80;99.90;;;;;;5074447;28;20100;-87
2021/10/05 12:59:20;;;;;;;;;;;14.70;99.90;;;;;;5076335;28;20034;-89
2021/10/05 13:02:16;;;;;;;;;;;14.70;99.90;;;;;;5073889;28;19948;-90
2021/10/05 13:04:44;;;;;;;;;;;14.70;99.90;;;;;;5061154;28;19932;-89
2021/10/05 13:07:10;;;;;;;;;;;14.50;99.90;;;;;;5069750;28;20106;-89
2021/10/05 13:09:37;;;;;;;;;;;14.70;99.90;;;;;;5063907;28;19994;-88
2021/10/05 13:12:04;;;;;;;;;;;14.90;99.90;;;;;;5065765;28;19959;-88
2021/10/05 13:14:30;;;;;;;;;;;14.80;99.90;;;;;;5068282;28;19957;-88
2021/10/05 13:16:57;;;;;;;;;;;14.80;99.90;;;;;;5077998;28;19943;-87
2021/10/05 13:19:25;;;;;;;;;;;14.50;99.90;;;;;;5075179;28;19961;-88
2021/10/05 13:21:53;;;;;;;;;;;14.80;99.90;;;;;;5061308;28;19966;-89
2021/10/05 13:24:22;;;;;;;;;;;14.80;99.90;;;;;;5068842;28;19946;-88
2021/10/05 13:26:49;;;;;;;;;;;14.70;99.90;;;;;;5079023;28;19930;-87
2021/10/05 13:29:15;;;;;;;;;;;14.90;99.90;;;;;;5079045;28;19932;-87
2021/10/05 13:31:42;;;;;;;;;;;17.40;99.90;;;;;;5079223;28;19997;-89
2021/10/05 13:34:09;;;;;;;;;;;15.80;99.90;;;;;;5078772;28;19938;-89
2021/10/05 13:36:35;;;;;;;;;;;14.50;99.90;;;;;;5079296;28;19935;-89
2021/10/05 13:39:03;;;;;;;;;;;14.50;99.90;;;;;;5079105;28;19947;-88
2021/10/05 13:41:31;;;;;;;;;;;14.60;99.90;;;;;;5069531;28;19953;-88
2021/10/05 13:43:57;;;;;;;;;;;14.60;99.90;;;;;;5067458;28;19952;-87
2021/10/05 13:46:26;;;;;;;;;;;14.60;99.90;;;;;;5064744;28;19954;-87
2021/10/05 13:48:53;;;;;;;;;;;14.60;99.90;;;;;;5065502;28;20047;-85
2021/10/05 13:51:19;;;;;;;;;;;14.50;99.90;;;;;;5062454;28;19945;-87
2021/10/05 13:53:46;;;;;;;;;;;14.60;99.90;;;;;;5064895;28;20401;-87
2021/10/05 13:56:13;;;;;;;;;;;14.60;99.90;;;;;;5072464;28;19951;-87
2021/10/05 13:58:40;;;;;;;;;;;14.60;99.90;;;;;;5069585;28;19958;-87
2021/10/05 14:01:07;;;;;;;;;;;14.50;99.90;;;;;;5063503;28;19950;-87
2021/10/05 14:03:34;;;;;;;;;;;14.50;99.90;;;;;;5060340;28;19964;-87
2021/10/05 14:06:01;;;;;;;;;;;14.40;99.90;;;;;;5060230;28;19982;-88
2021/10/05 14:08:27;;;;;;;;;;;14.40;99.90;;;;;;5062221;28;19947;-86
2021/10/05 14:10:59;;;;;;;;;;;14.40;99.90;;;;;;5061097;28;19966;-87
2021/10/05 14:13:27;;;;;;;;;;;14.40;99.90;;;;;;5069554;28;19965;-86
2021/10/05 14:16:04;;;;;;;;;;;16.90;99.90;;;;;;5069982;28;19951;-89
2021/10/05 14:18:32;;;;;;;;;;;14.40;99.90;;;;;;5073862;28;19959;-87
2021/10/05 14:20:59;;;;;;;;;;;14.40;99.90;;;;;;5062735;28;19958;-87
2021/10/05 14:23:26;;;;;;;;;;;12.40;99.90;;;;;;5061897;28;20297;-87
2021/10/05 14:25:52;;;;;;;;;;;14.40;99.90;;;;;;5062747;28;19950;-88
2021/10/05 14:28:19;;;;;;;;;;;14.40;99.90;;;;;;5060960;28;20426;-88
2021/10/05 14:30:47;;;;;;;;;;;14.30;99.90;;;;;;5061404;28;19952;-88
2021/10/05 14:33:17;;;;;;;;;;;14.00;99.90;;;;;;5060718;28;19967;-89
2021/10/05 14:35:44;;;;;;;;;;;14.20;99.90;;;;;;5063909;28;19954;-88
2021/10/05 14:38:11;;;;;;;;;;;14.90;99.90;;;;;;5081819;28;19959;-88
2021/10/05 14:40:38;;;;;;;;;;;14.20;99.90;;;;;;5082060;28;19933;-87
2021/10/05 14:43:05;;;;;;;;;;;14.20;99.90;;;;;;5073222;28;20018;-87
2021/10/05 14:45:32;;;;;;;;;;;14.20;99.90;;;;;;5066896;28;19954;-86
2021/10/05 14:48:00;;;;;;;;;;;13.70;99.90;;;;;;5065849;28;19956;-86
2021/10/05 14:50:27;;;;;;;;;;;14.10;99.90;;;;;;5067796;28;19950;-86
2021/10/05 15:05:10;;;;;;;;;;;13.20;99.90;;;;;;5034997;28;19944;-89
2021/10/05 15:19:24;;;;;;;;;;;15.00;99.90;;;;;;5043770;28;19965;-88
2021/10/05 15:38:10;;;;;;;;;;;14.30;99.90;;;;;;5087049;28;19949;-89
2021/10/05 15:53:08;;;;;;;;;;;13.80;99.90;;;;;;5041192;22;20008;-89
2021/10/05 15:55:36;;;;;;;;;;;16.10;99.90;;;;;;5096120;28;19938;-89
2021/10/05 16:06:51;;;;;;;;;;;13.70;99.90;;;;;;5063165;28;19945;-82
2021/10/05 16:12:53;;;;;;;;;;;13.90;99.90;;;;;;5041816;28;20347;-83
2021/10/05 16:18:23;;;;;;;;;;;17.30;99.90;;;;;;5061753;28;19969;-82
2021/10/05 16:20:49;;;;;;;;;;;12.40;99.90;;;;;;5096348;22;19980;-86
2021/10/05 16:23:16;;;;;;;;;;;13.50;99.90;;;;;;5100630;28;19967;-86
2021/10/05 16:25:42;;;;;;;;;;;13.50;99.90;;;;;;5100606;28;19937;-86
2021/10/05 16:28:11;;;;;;;;;;;13.50;99.90;;;;;;5100499;28;19958;-86
2021/10/05 16:30:38;;;;;;;;;;;13.30;99.90;;;;;;5100325;28;19945;-87
2021/10/05 16:33:05;;;;;;;;;;;13.40;99.90;;;;;;5100221;28;19937;-87
2021/10/05 16:35:37;;;;;;;;;;;13.50;99.90;;;;;;5100454;28;19956;-86
2021/10/05 16:38:06;;;;;;;;;;;13.40;99.90;;;;;;5100228;28;19924;-87
2021/10/05 16:40:32;;;;;;;;;;;13.40;99.90;;;;;;5098817;28;19980;-87
2021/10/05 16:42:59;;;;;;;;;;;13.00;99.90;;;;;;5092281;28;19956;-88
2021/10/05 16:45:28;;;;;;;;;;;13.40;99.90;;;;;;5090847;28;20377;-88
2021/10/05 16:47:55;;;;;;;;;;;12.70;99.90;;;;;;5092368;28;19947;-88
2021/10/05 16:50:22;;;;;;;;;;;13.40;99.90;;;;;;5089060;28;19982;-88
2021/10/05 16:52:49;;;;;;;;;;;13.00;99.90;;;;;;5094420;28;19947;-88
2021/10/05 16:55:17;;;;;;;;;;;13.40;99.90;;;;;;5097318;28;19944;-88
2021/10/05 16:57:44;;;;;;;;;;;13.40;99.90;;;;;;5096098;28;19960;-88
2021/10/05 17:00:11;;;;;;;;;;;13.30;99.90;;;;;;5098105;28;19958;-88
2021/10/05 17:02:39;;;;;;;;;;;13.30;99.90;;;;;;5099443;28;19937;-87
2021/10/05 17:05:06;;;;;;;;;;;13.20;99.90;;;;;;5099574;28;19935;-86
2021/10/05 17:07:33;;;;;;;;;;;13.30;99.90;;;;;;5099529;28;19930;-88
2021/10/05 17:10:03;;;;;;;;;;;13.30;99.90;;;;;;5099370;28;20001;-88
2021/10/05 17:12:29;;;;;;;;;;;13.20;99.90;;;;;;5096188;28;19955;-87
2021/10/05 17:14:56;;;;;;;;;;;13.10;99.90;;;;;;5093296;28;19943;-87
2021/10/05 17:17:22;;;;;;;;;;;13.20;99.90;;;;;;5093483;28;19935;-88
2021/10/05 17:19:51;;;;;;;;;;;13.10;99.90;;;;;;5094559;28;20009;-89
2021/10/05 17:22:17;;;;;;;;;;;12.80;99.90;;;;;;5090063;28;19955;-89
2021/10/05 17:24:47;;;;;;;;;;;13.10;99.90;;;;;;5086171;28;19958;-88
2021/10/05 17:27:17;;;;;;;;;;;13.10;99.90;;;;;;5088252;28;19972;-88
2021/10/05 17:29:44;;;;;;;;;;;13.10;99.90;;;;;;5098331;28;20021;-88
2021/10/05 17:32:11;;;;;;;;;;;13.30;99.90;;;;;;5098035;28;19957;-88
2021/10/05 17:34:38;;;;;;;;;;;12.70;99.90;;;;;;5099155;28;19930;-88
2021/10/05 17:37:06;;;;;;;;;;;13.00;99.90;;;;;;5098694;28;19937;-88
2021/10/05 17:39:33;;;;;;;;;;;13.80;99.90;;;;;;5098627;28;19991;-86
2021/10/05 17:41:59;;;;;;;;;;;13.10;99.90;;;;;;5097645;28;19955;-87
2021/10/05 17:44:29;;;;;;;;;;;13.50;99.90;;;;;;5098927;28;19991;-87